Time;durP1;ratioP1;P1;durP2;ratioP2;P2;SDS_P1;SDS_P2;PMS_P1;PMS_P2;Temp;Humidity;BMP_temperature;BMP_pressure;BME280_temperature;BME280_humidity;BME280_pressure;Samples;Min_cycle;Max_cycle;Signal;HPM_P1;HPM_P2
2022/03/10 00:00:58;;;;;;;11.63;8.40;;;2.30;93.00;;;;;;5068400;28;20043;-71
2022/03/10 00:03:24;;;;;;;10.70;8.27;;;2.30;92.70;;;;;;5064250;28;20043;-71
2022/03/10 00:05:49;;;;;;;12.45;8.45;;;2.30;93.00;;;;;;5058523;28;20059;-70
2022/03/10 00:08:15;;;;;;;12.20;8.65;;;3.60;94.10;;;;;;5063961;28;20448;-71
2022/03/10 00:10:41;;;;;;;10.13;7.88;;;2.20;93.20;;;;;;5066653;28;20113;-70
2022/03/10 00:13:06;;;;;;;13.00;8.95;;;2.30;93.80;;;;;;5067304;28;20117;-71
2022/03/10 00:15:32;;;;;;;12.75;9.02;;;2.20;93.90;;;;;;5062304;28;20443;-70
2022/03/10 00:18:02;;;;;;;13.63;9.38;;;2.10;94.40;;;;;;5061893;28;20601;-70
2022/03/10 00:20:27;;;;;;;11.60;7.95;;;2.10;92.60;;;;;;5063259;28;20051;-70
2022/03/10 00:22:55;;;;;;;13.82;8.38;;;2.10;92.00;;;;;;5065751;28;20498;-70
2022/03/10 00:25:21;;;;;;;13.10;9.13;;;2.10;91.10;;;;;;5062919;28;20079;-71
2022/03/10 00:27:47;;;;;;;20.88;9.77;;;2.10;92.00;;;;;;5066453;28;20048;-70
2022/03/10 00:30:14;;;;;;;12.10;8.98;;;2.20;91.70;;;;;;5078502;28;20047;-71
2022/03/10 00:32:51;;;;;;;12.52;8.75;;;2.20;91.90;;;;;;5066932;28;20403;-71
2022/03/10 00:35:18;;;;;;;12.50;7.97;;;2.20;92.40;;;;;;5082956;28;20098;-71
2022/03/10 00:37:45;;;;;;;11.93;8.52;;;2.20;92.10;;;;;;5065232;28;20036;-71
2022/03/10 00:40:12;;;;;;;12.07;8.65;;;2.20;91.80;;;;;;5065464;28;20374;-71
2022/03/10 00:42:39;;;;;;;15.70;8.93;;;2.20;91.90;;;;;;5066604;28;20072;-70
2022/03/10 00:45:06;;;;;;;14.60;8.07;;;2.10;92.00;;;;;;5069791;28;20128;-70
2022/03/10 00:47:32;;;;;;;12.98;9.13;;;2.20;92.00;;;;;;5064163;28;20128;-70
2022/03/10 00:49:58;;;;;;;12.02;8.02;;;2.20;92.70;;;;;;5073651;28;20071;-70
2022/03/10 00:52:24;;;;;;;13.35;8.25;;;2.20;92.70;;;;;;5067469;28;20503;-70
2022/03/10 00:54:49;;;;;;;13.20;8.80;;;2.20;93.30;;;;;;5068132;28;20079;-71
2022/03/10 00:57:15;;;;;;;14.93;8.95;;;2.00;94.20;;;;;;5064148;28;20130;-71
2022/03/10 00:59:41;;;;;;;12.90;8.90;;;2.00;92.60;;;;;;5063651;28;20060;-70
2022/03/10 01:02:06;;;;;;;13.13;8.32;;;2.00;92.90;;;;;;5066612;28;20495;-70
2022/03/10 01:04:32;;;;;;;12.80;9.45;;;2.10;91.70;;;;;;5095781;28;20433;-71
2022/03/10 01:06:58;;;;;;;17.02;9.38;;;2.20;91.60;;;;;;5067047;28;20041;-71
2022/03/10 01:09:23;;;;;;;12.70;9.50;;;2.10;92.00;;;;;;5085450;28;20064;-70
2022/03/10 01:11:49;;;;;;;17.30;9.55;;;2.20;91.50;;;;;;5066295;28;20119;-71
2022/03/10 01:14:15;;;;;;;12.82;9.25;;;2.20;91.50;;;;;;5064262;28;20052;-71
2022/03/10 01:16:41;;;;;;;8.65;7.03;;;2.30;91.90;;;;;;5066434;28;20110;-70
2022/03/10 01:19:08;;;;;;;14.25;9.10;;;2.20;92.30;;;;;;5064746;28;20039;-70
2022/03/10 01:21:34;;;;;;;14.85;9.18;;;2.10;92.60;;;;;;5096401;28;20041;-71
2022/03/10 01:24:00;;;;;;;12.73;8.27;;;2.10;91.90;;;;;;5066641;28;20075;-71
2022/03/10 01:26:26;;;;;;;11.05;8.35;;;2.00;92.90;;;;;;5067079;28;20044;-71
2022/03/10 01:28:52;;;;;;;12.40;8.95;;;2.10;93.00;;;;;;5066223;28;20036;-71
2022/03/10 01:31:17;;;;;;;11.98;8.88;;;2.10;92.90;;;;;;5068924;28;20033;-70
2022/03/10 01:33:43;;;;;;;10.50;8.57;;;2.10;93.60;;;;;;5066424;28;20608;-71
2022/03/10 01:36:09;;;;;;;10.85;8.52;;;2.00;93.90;;;;;;5067779;28;20087;-71
2022/03/10 01:38:39;;;;;;;13.45;10.10;;;1.90;93.70;;;;;;5068079;28;20054;-71
2022/03/10 01:41:11;;;;;;;12.50;9.10;;;1.70;93.60;;;;;;5067243;28;20048;-70
2022/03/10 01:43:59;;;;;;;11.30;7.93;;;1.80;92.80;;;;;;5068341;28;20032;-70
2022/03/10 01:46:24;;;;;;;10.68;8.15;;;1.80;93.40;;;;;;5062487;28;20059;-70
2022/03/10 01:48:50;;;;;;;13.80;9.35;;;1.80;93.10;;;;;;5068324;28;20045;-70
2022/03/10 01:51:16;;;;;;;12.98;9.30;;;1.80;94.20;;;;;;5085247;28;20052;-71
2022/03/10 01:53:42;;;;;;;12.90;9.77;;;1.80;94.00;;;;;;5081557;28;20099;-71
2022/03/10 01:56:10;;;;;;;14.50;10.05;;;1.80;94.30;;;;;;5066827;28;20497;-71
2022/03/10 01:58:37;;;;;;;13.68;10.07;;;1.80;94.60;;;;;;5067805;28;20033;-71
2022/03/10 02:01:03;;;;;;;13.02;9.05;;;1.80;94.80;;;;;;5068988;28;20119;-71
2022/03/10 02:03:29;;;;;;;14.32;9.27;;;1.80;94.10;;;;;;5068989;28;20120;-71
2022/03/10 02:05:55;;;;;;;13.95;9.90;;;1.70;94.10;;;;;;5069813;28;20046;-71
2022/03/10 02:11:06;;;;;;;12.00;9.75;;;1.80;93.20;;;;;;5095424;28;20044;-71
2022/03/10 02:13:32;;;;;;;13.45;9.52;;;1.80;93.70;;;;;;5097988;28;20159;-71
2022/03/10 02:18:45;;;;;;;25.92;10.43;;;1.80;93.70;;;;;;5066801;28;20040;-71
2022/03/10 02:21:10;;;;;;;18.70;11.25;;;1.80;94.10;;;;;;5097503;28;20045;-71
2022/03/10 02:23:36;;;;;;;13.02;9.35;;;1.80;93.30;;;;;;5069288;28;20095;-71
2022/03/10 02:26:02;;;;;;;13.20;9.70;;;1.80;93.50;;;;;;5064648;28;20050;-71
2022/03/10 02:28:28;;;;;;;14.77;10.65;;;1.80;92.10;;;;;;5069593;28;20082;-72
2022/03/10 02:30:54;;;;;;;15.63;11.15;;;1.90;92.60;;;;;;5068647;28;20048;-70
2022/03/10 02:33:20;;;;;;;16.80;11.57;;;1.80;92.80;;;;;;5064884;28;20041;-71
2022/03/10 02:35:46;;;;;;;14.63;10.52;;;1.80;92.80;;;;;;5065837;28;20036;-71
2022/03/10 02:38:19;;;;;;;14.40;10.73;;;1.70;93.80;;;;;;5081622;28;20041;-70
2022/03/10 02:40:48;;;;;;;14.00;9.38;;;1.80;93.50;;;;;;5067242;28;20047;-71
2022/03/10 02:43:15;;;;;;;14.45;10.80;;;1.70;93.20;;;;;;5068857;28;20870;-71
2022/03/10 02:45:40;;;;;;;15.95;10.65;;;1.80;93.60;;;;;;5069416;28;20048;-70
2022/03/10 02:48:06;;;;;;;14.95;10.50;;;1.80;94.00;;;;;;5069800;28;20379;-71
2022/03/10 02:50:32;;;;;;;18.38;10.57;;;1.70;94.40;;;;;;5067271;28;20044;-70
2022/03/10 02:52:57;;;;;;;15.15;9.60;;;1.70;93.50;;;;;;5068308;28;20029;-71
2022/03/10 02:55:23;;;;;;;13.57;10.07;;;1.90;92.10;;;;;;5074883;28;20050;-71
2022/03/10 02:57:49;;;;;;;14.98;9.85;;;2.00;91.70;;;;;;5066036;28;21118;-70
2022/03/10 03:00:17;;;;;;;12.75;9.52;;;2.10;91.00;;;;;;5064459;28;20041;-70
2022/03/10 03:02:43;;;;;;;15.07;9.82;;;2.10;91.00;;;;;;5066617;28;20048;-71
2022/03/10 03:05:12;;;;;;;13.52;8.68;;;2.10;91.60;;;;;;5066834;28;20113;-70
2022/03/10 03:07:38;;;;;;;15.95;11.15;;;2.10;92.40;;;;;;5067120;28;20063;-70
2022/03/10 03:10:05;;;;;;;16.95;11.25;;;2.10;93.20;;;;;;5066302;28;20028;-71
2022/03/10 03:12:32;;;;;;;15.18;10.70;;;2.00;92.40;;;;;;5065773;28;20048;-71
2022/03/10 03:14:58;;;;;;;14.77;10.18;;;2.00;91.80;;;;;;5067833;28;20094;-70
2022/03/10 03:17:27;;;;;;;14.90;10.52;;;2.00;91.20;;;;;;5065990;28;20086;-71
2022/03/10 03:19:53;;;;;;;17.90;10.95;;;2.00;91.10;;;;;;5068053;28;20127;-71
2022/03/10 03:22:19;;;;;;;16.45;10.35;;;2.10;91.10;;;;;;5065992;28;20048;-70
2022/03/10 03:24:45;;;;;;;15.57;9.95;;;2.10;90.90;;;;;;5066321;28;20469;-71
2022/03/10 03:27:12;;;;;;;15.00;9.88;;;2.20;90.20;;;;;;5066833;28;20040;-71
2022/03/10 03:29:37;;;;;;;18.70;10.35;;;2.40;90.30;;;;;;5064098;28;20062;-71
2022/03/10 03:32:03;;;;;;;14.60;9.88;;;2.20;90.00;;;;;;5066970;28;20040;-70
2022/03/10 03:34:29;;;;;;;15.48;9.88;;;2.30;90.20;;;;;;5069037;28;20042;-71
2022/03/10 03:36:55;;;;;;;18.05;10.75;;;2.30;89.80;;;;;;5066862;28;20048;-70
2022/03/10 03:39:21;;;;;;;16.80;10.55;;;2.30;89.20;;;;;;5066731;28;20056;-71
2022/03/10 03:41:46;;;;;;;14.25;9.77;;;2.30;89.50;;;;;;5064433;28;20040;-71
2022/03/10 03:44:13;;;;;;;13.60;9.98;;;2.20;90.80;;;;;;5066448;28;20127;-71
2022/03/10 03:46:40;;;;;;;14.85;10.73;;;2.20;91.10;;;;;;5067216;28;20072;-71
2022/03/10 03:49:06;;;;;;;20.17;10.98;;;2.40;91.90;;;;;;5064921;28;20040;-71
2022/03/10 03:51:32;;;;;;;12.75;9.82;;;2.20;91.70;;;;;;5064783;28;20569;-71
2022/03/10 03:53:57;;;;;;;13.63;10.07;;;2.10;91.80;;;;;;5067427;28;20097;-70
2022/03/10 03:56:23;;;;;;;17.38;9.95;;;2.20;92.00;;;;;;5068415;28;20090;-71
2022/03/10 03:58:49;;;;;;;14.27;9.55;;;2.10;91.90;;;;;;5065497;28;20049;-71
2022/03/10 04:01:15;;;;;;;16.58;10.20;;;2.00;91.10;;;;;;5068661;28;20440;-70
2022/03/10 04:03:40;;;;;;;16.15;10.23;;;2.00;92.10;;;;;;5065073;28;20166;-71
2022/03/10 04:06:06;;;;;;;15.85;10.73;;;2.00;91.90;;;;;;5063827;28;20071;-71
2022/03/10 04:08:32;;;;;;;16.65;11.23;;;1.80;91.90;;;;;;5066306;28;20047;-71
2022/03/10 04:10:58;;;;;;;16.83;10.43;;;1.80;92.10;;;;;;5068011;28;20036;-71
2022/03/10 04:13:24;;;;;;;15.10;10.68;;;1.80;92.30;;;;;;5066295;28;20535;-71
2022/03/10 04:15:51;;;;;;;12.18;9.75;;;1.80;92.20;;;;;;5066502;28;20139;-70
2022/03/10 04:18:17;;;;;;;22.63;10.95;;;1.80;92.70;;;;;;5067591;28;20086;-70
2022/03/10 04:20:47;;;;;;;17.90;10.60;;;1.70;93.00;;;;;;5066344;28;20075;-71
2022/03/10 04:23:14;;;;;;;18.23;11.10;;;1.70;92.40;;;;;;5062785;28;20074;-70
2022/03/10 04:25:40;;;;;;;16.40;10.48;;;1.70;91.60;;;;;;5069268;28;20044;-70
2022/03/10 04:28:06;;;;;;;15.02;10.85;;;1.80;91.00;;;;;;5067399;28;20040;-70
2022/03/10 04:30:33;;;;;;;14.68;9.85;;;1.80;91.00;;;;;;5065277;28;20040;-70
2022/03/10 04:32:59;;;;;;;15.45;10.73;;;1.80;91.20;;;;;;5066434;28;20052;-70
2022/03/10 04:35:25;;;;;;;11.25;9.00;;;1.70;91.50;;;;;;5067529;28;20048;-70
2022/03/10 04:37:52;;;;;;;16.75;10.68;;;1.70;91.80;;;;;;5065588;28;20076;-70
2022/03/10 04:40:19;;;;;;;18.42;11.32;;;1.90;92.70;;;;;;5064883;28;20127;-71
2022/03/10 04:42:45;;;;;;;16.15;10.43;;;1.70;92.50;;;;;;5064977;28;20049;-71
2022/03/10 04:45:11;;;;;;;19.95;11.07;;;1.70;92.50;;;;;;5067905;28;20066;-70
2022/03/10 04:47:38;;;;;;;14.70;10.27;;;1.70;92.10;;;;;;5065876;28;20059;-70
2022/03/10 04:50:06;;;;;;;19.40;9.90;;;1.60;91.80;;;;;;5067105;28;20094;-71
2022/03/10 04:52:32;;;;;;;14.73;10.13;;;1.70;91.60;;;;;;5095345;28;20510;-70
2022/03/10 04:54:57;;;;;;;11.50;9.10;;;1.70;91.70;;;;;;5066551;28;20036;-70
2022/03/10 04:57:23;;;;;;;15.02;9.93;;;1.70;91.40;;;;;;5065510;28;20401;-70
2022/03/10 04:59:49;;;;;;;12.10;8.85;;;1.80;91.00;;;;;;5066224;28;20049;-70
2022/03/10 05:02:15;;;;;;;13.27;9.30;;;1.70;90.90;;;;;;5068038;28;20067;-70
2022/03/10 05:04:41;;;;;;;16.42;9.70;;;1.80;90.40;;;;;;5069828;28;20075;-70
2022/03/10 05:07:07;;;;;;;15.82;9.27;;;1.80;90.40;;;;;;5072557;28;20119;-71
2022/03/10 05:09:32;;;;;;;16.10;9.52;;;1.80;90.20;;;;;;5069002;28;20067;-70
2022/03/10 05:11:58;;;;;;;13.40;9.45;;;1.80;90.20;;;;;;5069823;28;20040;-71
2022/03/10 05:14:24;;;;;;;15.85;9.98;;;1.80;90.50;;;;;;5070791;28;20044;-70
2022/03/10 05:16:54;;;;;;;13.13;9.25;;;1.80;90.40;;;;;;5071798;28;20483;-70
2022/03/10 05:19:19;;;;;;;13.38;9.80;;;1.80;90.50;;;;;;5070243;28;20049;-71
2022/03/10 05:21:45;;;;;;;14.20;9.10;;;1.80;90.50;;;;;;5077837;28;20546;-70
2022/03/10 05:24:12;;;;;;;16.75;9.02;;;1.90;90.80;;;;;;5071689;28;20391;-70
2022/03/10 05:26:38;;;;;;;11.50;8.68;;;1.80;90.40;;;;;;5070399;28;20105;-71
2022/03/10 05:29:04;;;;;;;16.17;9.88;;;1.80;90.60;;;;;;5070442;28;20037;-70
2022/03/10 05:31:30;;;;;;;11.48;9.05;;;1.80;90.90;;;;;;5068656;28;20032;-71
2022/03/10 05:33:56;;;;;;;14.73;9.10;;;1.80;90.50;;;;;;5070828;28;20032;-71
2022/03/10 05:36:22;;;;;;;14.02;8.68;;;1.80;90.10;;;;;;5071504;28;20045;-70
2022/03/10 05:38:47;;;;;;;14.20;8.57;;;1.90;89.50;;;;;;5069509;28;20044;-70
2022/03/10 05:41:14;;;;;;;15.65;8.73;;;1.90;89.90;;;;;;5069955;28;20036;-71
2022/03/10 05:43:39;;;;;;;13.05;9.18;;;1.90;88.90;;;;;;5067772;28;20029;-71
2022/03/10 05:46:05;;;;;;;12.82;8.98;;;1.90;89.10;;;;;;5069573;28;20509;-70
2022/03/10 05:48:32;;;;;;;14.70;9.45;;;2.10;89.60;;;;;;5069112;28;20048;-70
2022/03/10 05:50:58;;;;;;;14.55;9.75;;;2.00;90.70;;;;;;5069106;28;20560;-70
2022/03/10 05:53:24;;;;;;;18.60;9.50;;;2.00;90.20;;;;;;5068547;28;20040;-71
2022/03/10 05:55:51;;;;;;;14.68;10.00;;;1.90;90.50;;;;;;5100926;28;20044;-71
2022/03/10 05:58:16;;;;;;;19.63;9.05;;;2.20;90.80;;;;;;5066942;28;20040;-70
2022/03/10 06:00:42;;;;;;;14.73;9.80;;;1.80;91.50;;;;;;5068830;28;20055;-71
2022/03/10 06:03:08;;;;;;;12.20;9.40;;;1.90;91.90;;;;;;5071537;28;20036;-71
2022/03/10 06:05:34;;;;;;;12.50;9.43;;;1.90;91.80;;;;;;5067118;28;20044;-70
2022/03/10 06:08:00;;;;;;;14.60;9.02;;;1.90;91.30;;;;;;5070175;28;20039;-70
2022/03/10 06:10:25;;;;;;;14.82;9.27;;;1.90;91.60;;;;;;5052562;28;20044;-70
2022/03/10 06:12:51;;;;;;;11.85;8.82;;;1.80;92.30;;;;;;5064084;28;20047;-70
2022/03/10 06:15:18;;;;;;;12.20;8.88;;;1.80;92.60;;;;;;5068358;28;20085;-71
2022/03/10 06:17:43;;;;;;;13.88;9.68;;;1.80;92.20;;;;;;5068077;28;20119;-70
2022/03/10 06:20:11;;;;;;;15.10;10.00;;;1.80;92.10;;;;;;5069776;28;20123;-71
2022/03/10 06:22:36;;;;;;;15.60;10.02;;;1.80;92.30;;;;;;5069089;28;20040;-71
2022/03/10 06:25:04;;;;;;;16.85;10.23;;;1.80;92.50;;;;;;5067101;28;20052;-70
2022/03/10 06:27:30;;;;;;;17.48;9.43;;;1.90;91.90;;;;;;5066114;28;20051;-71
2022/03/10 06:29:56;;;;;;;14.98;9.55;;;2.10;91.00;;;;;;5066053;28;20044;-70
2022/03/10 06:32:23;;;;;;;17.27;10.43;;;2.30;89.90;;;;;;5066579;28;20058;-71
2022/03/10 06:34:50;;;;;;;17.38;9.45;;;2.60;89.90;;;;;;5068927;28;20057;-70
2022/03/10 06:37:15;;;;;;;16.23;9.05;;;2.80;87.80;;;;;;5067350;28;20048;-70
2022/03/10 06:39:41;;;;;;;16.48;9.60;;;3.00;87.10;;;;;;5068384;28;20040;-70
2022/03/10 06:42:09;;;;;;;12.13;9.18;;;3.10;85.60;;;;;;5068369;28;20036;-71
2022/03/10 06:44:36;;;;;;;15.23;9.45;;;3.50;84.90;;;;;;5066557;28;20044;-71
2022/03/10 06:47:06;;;;;;;15.48;9.93;;;3.90;83.30;;;;;;5066894;28;20044;-71
2022/03/10 06:49:32;;;;;;;14.82;9.63;;;4.40;81.60;;;;;;5066049;28;20685;-71
2022/03/10 06:51:58;;;;;;;13.98;10.40;;;4.80;79.80;;;;;;5068237;28;20036;-71
2022/03/10 06:54:24;;;;;;;14.60;9.52;;;5.20;81.10;;;;;;5067956;28;20043;-71
2022/03/10 06:56:49;;;;;;;16.95;9.27;;;5.60;78.60;;;;;;5070243;28;20131;-72
2022/03/10 06:59:15;;;;;;;14.20;9.85;;;5.90;77.10;;;;;;5051729;28;20079;-71
2022/03/10 07:01:41;;;;;;;14.35;10.00;;;6.20;77.20;;;;;;5066683;28;20044;-71
2022/03/10 07:04:07;;;;;;;16.80;10.55;;;6.30;75.30;;;;;;5066602;28;20127;-71
2022/03/10 07:06:32;;;;;;;14.43;9.75;;;6.50;73.60;;;;;;5065938;28;20051;-71
2022/03/10 07:08:58;;;;;;;12.05;9.38;;;6.60;73.90;;;;;;5068085;28;20071;-71
2022/03/10 07:11:25;;;;;;;16.52;10.50;;;6.80;72.10;;;;;;5067298;28;20052;-71
2022/03/10 07:13:51;;;;;;;13.60;9.75;;;6.90;72.10;;;;;;5066167;28;20091;-71
2022/03/10 07:16:16;;;;;;;12.82;9.93;;;7.00;72.60;;;;;;5065462;28;20562;-73
2022/03/10 07:18:42;;;;;;;15.82;9.45;;;7.30;72.90;;;;;;5066152;28;20036;-74
2022/03/10 07:21:09;;;;;;;15.70;9.82;;;7.40;69.40;;;;;;5066670;28;20043;-73
2022/03/10 07:23:35;;;;;;;13.52;9.77;;;7.70;72.20;;;;;;5068532;28;20043;-74
2022/03/10 07:26:00;;;;;;;14.82;9.32;;;7.70;70.30;;;;;;5069450;28;20063;-73
2022/03/10 07:28:27;;;;;;;10.95;9.15;;;7.70;70.40;;;;;;5067960;28;20094;-74
2022/03/10 07:30:53;;;;;;;12.10;10.02;;;7.70;69.20;;;;;;5066105;28;20040;-74
2022/03/10 07:33:19;;;;;;;13.10;9.30;;;7.70;71.20;;;;;;5063711;28;20068;-74
2022/03/10 07:35:45;;;;;;;12.13;10.20;;;7.70;70.70;;;;;;5066868;28;20039;-74
2022/03/10 07:38:11;;;;;;;13.48;10.18;;;7.70;71.20;;;;;;5065711;28;20041;-74
2022/03/10 07:40:37;;;;;;;16.30;10.63;;;7.50;71.70;;;;;;5095863;28;20135;-73
2022/03/10 07:43:05;;;;;;;17.77;10.35;;;7.20;70.50;;;;;;5064826;28;20131;-74
2022/03/10 07:45:32;;;;;;;14.48;10.55;;;6.90;72.00;;;;;;5063721;28;20044;-73
2022/03/10 07:47:57;;;;;;;13.95;10.88;;;6.70;71.90;;;;;;5064392;28;20483;-74
2022/03/10 07:50:23;;;;;;;12.05;9.23;;;6.40;72.00;;;;;;5063579;28;20040;-74
2022/03/10 07:52:49;;;;;;;12.98;9.65;;;6.30;73.70;;;;;;5066974;28;20059;-74
2022/03/10 07:55:15;;;;;;;13.60;10.10;;;6.40;74.50;;;;;;5064469;28;20423;-73
2022/03/10 07:57:41;;;;;;;15.20;11.25;;;6.30;75.70;;;;;;5067850;28;20367;-74
2022/03/10 08:00:08;;;;;;;15.00;10.70;;;6.30;73.90;;;;;;5066338;28;20040;-73
2022/03/10 08:02:34;;;;;;;17.90;10.68;;;6.20;76.10;;;;;;5069033;28;20043;-74
2022/03/10 08:05:00;;;;;;;13.48;10.48;;;6.20;76.60;;;;;;5075450;28;20051;-73
2022/03/10 08:07:26;;;;;;;14.23;10.07;;;6.20;76.20;;;;;;5066865;28;20036;-74
2022/03/10 08:09:52;;;;;;;13.15;10.80;;;6.00;75.60;;;;;;5065916;28;20475;-73
2022/03/10 08:12:17;;;;;;;16.92;10.73;;;6.20;78.00;;;;;;5067288;28;20044;-74
2022/03/10 08:14:43;;;;;;;12.95;10.35;;;6.30;77.70;;;;;;5070278;28;20043;-73
2022/03/10 08:17:09;;;;;;;13.35;10.25;;;6.30;78.00;;;;;;5067474;28;20037;-74
2022/03/10 08:19:35;;;;;;;16.10;10.85;;;6.30;77.50;;;;;;5065892;28;20048;-74
2022/03/10 08:22:00;;;;;;;12.68;10.43;;;6.40;76.20;;;;;;5065858;28;20081;-74
2022/03/10 08:24:28;;;;;;;17.58;11.30;;;6.40;77.20;;;;;;5066613;28;20024;-73
2022/03/10 08:26:54;;;;;;;14.65;11.02;;;6.40;77.30;;;;;;5065028;28;20041;-74
2022/03/10 08:29:20;;;;;;;14.70;10.35;;;6.50;78.90;;;;;;5049438;28;20065;-74
2022/03/10 08:31:45;;;;;;;13.55;10.98;;;6.60;78.30;;;;;;5063015;28;20044;-74
2022/03/10 08:34:11;;;;;;;12.88;10.35;;;6.70;79.90;;;;;;5066293;28;20178;-74
2022/03/10 08:36:36;;;;;;;15.02;11.10;;;6.80;78.30;;;;;;5069015;28;20036;-74
2022/03/10 08:39:02;;;;;;;12.40;10.38;;;6.90;78.30;;;;;;5069801;28;20058;-74
2022/03/10 08:41:28;;;;;;;17.60;10.75;;;7.10;78.40;;;;;;5067142;28;20443;-74
2022/03/10 08:43:54;;;;;;;13.93;10.73;;;7.10;77.90;;;;;;5067403;28;20079;-73
2022/03/10 08:46:19;;;;;;;13.10;10.25;;;7.30;77.50;;;;;;5069912;28;20049;-74
2022/03/10 08:48:46;;;;;;;19.98;12.20;;;7.40;76.70;;;;;;5070029;28;20036;-74
2022/03/10 08:51:12;;;;;;;19.05;10.82;;;7.60;76.70;;;;;;5069120;28;20194;-74
2022/03/10 08:53:38;;;;;;;16.52;11.13;;;7.70;77.40;;;;;;5068346;28;20400;-74
2022/03/10 08:56:06;;;;;;;14.20;11.10;;;7.80;77.50;;;;;;5068747;28;20100;-74
2022/03/10 08:58:32;;;;;;;12.60;9.80;;;7.80;74.50;;;;;;5085140;28;20454;-74
2022/03/10 09:00:58;;;;;;;13.32;10.38;;;8.00;75.50;;;;;;5069948;28;20036;-74
2022/03/10 09:03:25;;;;;;;16.80;11.52;;;8.00;75.10;;;;;;5067928;28;20589;-74
2022/03/10 09:05:50;;;;;;;15.32;11.15;;;8.20;74.80;;;;;;5061456;28;20055;-74
2022/03/10 09:08:16;;;;;;;14.15;10.85;;;8.30;71.80;;;;;;5071776;28;20028;-74
2022/03/10 09:10:41;;;;;;;13.32;10.48;;;8.40;73.50;;;;;;5067302;28;20068;-74
2022/03/10 09:13:07;;;;;;;15.32;10.90;;;8.50;73.30;;;;;;5069917;28;20032;-74
2022/03/10 09:15:34;;;;;;;14.77;10.38;;;8.60;73.40;;;;;;5064367;28;20063;-74
2022/03/10 09:18:00;;;;;;;16.13;9.90;;;8.60;72.60;;;;;;5068368;28;20036;-74
2022/03/10 09:20:26;;;;;;;13.90;10.65;;;8.80;73.50;;;;;;5068428;28;20430;-74
2022/03/10 09:22:51;;;;;;;14.32;10.18;;;8.90;71.10;;;;;;5069157;28;20072;-75
2022/03/10 09:25:17;;;;;;;15.52;10.48;;;9.10;72.40;;;;;;5069434;28;20040;-75
2022/03/10 09:27:43;;;;;;;14.43;10.52;;;9.10;70.50;;;;;;5068704;28;20043;-75
2022/03/10 09:30:12;;;;;;;16.08;10.52;;;9.30;71.70;;;;;;5068323;28;20040;-75
2022/03/10 09:32:39;;;;;;;13.48;11.23;;;9.30;67.90;;;;;;5066576;28;20494;-75
2022/03/10 09:35:07;;;;;;;12.98;10.60;;;9.60;71.30;;;;;;5070173;28;20033;-75
2022/03/10 09:37:33;;;;;;;13.00;9.90;;;9.60;70.90;;;;;;5064357;28;20036;-75
2022/03/10 09:39:59;;;;;;;14.65;10.38;;;9.70;67.90;;;;;;5069498;28;20125;-75
2022/03/10 09:42:29;;;;;;;15.00;11.50;;;9.80;68.30;;;;;;5069050;28;20037;-75
2022/03/10 09:45:01;;;;;;;13.82;10.77;;;9.80;66.70;;;;;;5070406;28;20067;-75
2022/03/10 09:47:27;;;;;;;16.23;10.80;;;9.90;66.60;;;;;;5067896;28;20040;-75
2022/03/10 09:49:53;;;;;;;15.13;10.68;;;9.90;66.50;;;;;;5066283;28;20040;-75
2022/03/10 09:52:21;;;;;;;14.48;10.68;;;10.10;68.30;;;;;;5068479;28;20033;-75
2022/03/10 09:54:47;;;;;;;13.75;10.40;;;10.30;66.70;;;;;;5068808;28;20475;-75
2022/03/10 09:57:16;;;;;;;12.38;10.88;;;10.40;63.90;;;;;;5069307;28;20097;-75
2022/03/10 09:59:50;;;;;;;12.82;10.27;;;10.50;66.00;;;;;;5086855;28;20060;-75
2022/03/10 10:02:16;;;;;;;13.88;10.48;;;10.80;66.60;;;;;;5066488;28;20044;-75
2022/03/10 10:04:42;;;;;;;17.08;10.95;;;10.90;64.70;;;;;;5069516;28;20076;-75
2022/03/10 10:07:10;;;;;;;14.07;11.15;;;11.00;64.80;;;;;;5066127;28;20123;-76
2022/03/10 10:09:51;;;;;;;17.05;12.00;;;11.20;62.90;;;;;;5067603;28;20399;-75
2022/03/10 10:12:18;;;;;;;16.67;11.35;;;11.20;62.20;;;;;;5059937;28;20102;-75
2022/03/10 10:14:47;;;;;;;15.43;10.80;;;11.20;62.20;;;;;;5068706;28;20037;-75
2022/03/10 10:17:13;;;;;;;14.18;10.68;;;11.30;63.70;;;;;;5064878;28;20082;-76
2022/03/10 10:19:40;;;;;;;18.60;11.98;;;11.30;60.90;;;;;;5099753;28;20047;-76
2022/03/10 10:22:19;;;;;;;15.65;11.13;;;11.30;60.60;;;;;;5065741;28;20506;-75
2022/03/10 10:24:50;;;;;;;17.17;11.23;;;11.30;62.20;;;;;;5064546;28;20044;-75
2022/03/10 10:27:22;;;;;;;15.63;11.15;;;11.20;60.90;;;;;;5066781;28;20043;-75
2022/03/10 10:29:54;;;;;;;14.75;11.63;;;11.30;61.40;;;;;;5066774;28;20479;-75
2022/03/10 10:32:29;;;;;;;15.23;12.02;;;11.50;60.10;;;;;;5067756;28;20506;-75
2022/03/10 10:35:08;;;;;;;15.52;11.07;;;11.80;61.00;;;;;;5068948;28;20040;-75
2022/03/10 10:37:39;;;;;;;16.27;11.55;;;11.90;63.40;;;;;;5066924;28;20048;-75
2022/03/10 10:40:07;;;;;;;17.02;12.30;;;11.90;60.40;;;;;;5065518;28;20043;-75
2022/03/10 10:42:39;;;;;;;15.77;11.98;;;11.80;59.40;;;;;;5066561;28;20422;-75
2022/03/10 10:45:28;;;;;;;13.50;11.25;;;11.90;61.00;;;;;;5095597;28;20178;-75
2022/03/10 10:48:08;;;;;;;14.15;10.88;;;11.90;60.40;;;;;;5068588;28;20094;-75
2022/03/10 10:50:39;;;;;;;17.08;11.48;;;11.90;59.90;;;;;;5065619;28;20051;-75
2022/03/10 10:53:06;;;;;;;16.58;11.88;;;12.20;61.10;;;;;;5067624;28;20158;-75
2022/03/10 10:55:38;;;;;;;17.27;12.18;;;12.40;59.50;;;;;;5065638;28;20048;-75
2022/03/10 10:58:05;;;;;;;16.05;10.95;;;12.30;59.00;;;;;;5066503;28;20032;-76
2022/03/10 11:00:41;;;;;;;17.13;11.25;;;12.40;58.40;;;;;;5065399;28;20040;-76
2022/03/10 11:03:20;;;;;;;;;;;12.20;58.70;;;;;;5067748;28;20058;-75
2022/03/10 11:05:48;;;;;;;15.15;11.93;;;12.30;61.00;;;;;;5066140;28;19921;-76
2022/03/10 11:08:15;;;;;;;18.05;12.60;;;12.40;60.70;;;;;;5073186;28;20632;-75
2022/03/10 11:10:41;;;;;;;15.80;12.88;;;12.50;58.80;;;;;;5064554;28;20051;-76
2022/03/10 11:13:07;;;;;;;16.45;12.07;;;12.50;59.20;;;;;;5065968;28;20049;-75
2022/03/10 11:15:33;;;;;;;13.80;12.15;;;12.40;58.30;;;;;;5065522;28;20048;-75
2022/03/10 11:18:00;;;;;;;17.40;13.82;;;12.50;59.50;;;;;;5068979;28;20032;-75
2022/03/10 11:20:29;;;;;;;13.68;11.68;;;12.70;59.20;;;;;;5065753;28;20079;-75
2022/03/10 11:23:12;;;;;;;13.90;11.93;;;12.70;58.30;;;;;;5066313;28;20509;-75
2022/03/10 11:25:53;;;;;;;14.52;12.38;;;12.70;59.30;;;;;;5065069;28;20066;-76
2022/03/10 11:28:23;;;;;;;15.35;12.88;;;12.50;59.00;;;;;;5060096;28;20075;-75
2022/03/10 11:30:52;;;;;;;17.95;12.85;;;12.70;58.90;;;;;;5096137;27;20033;-76
2022/03/10 11:33:18;;;;;;;16.83;13.00;;;12.60;57.30;;;;;;5096252;28;20041;-76
2022/03/10 11:35:47;;;;;;;17.20;13.13;;;12.70;58.00;;;;;;5066496;28;20033;-76
2022/03/10 11:38:14;;;;;;;17.63;13.05;;;12.80;58.80;;;;;;5066615;28;20037;-76
2022/03/10 11:40:56;;;;;;;15.63;11.93;;;12.80;58.20;;;;;;5065025;28;20041;-76
2022/03/10 11:43:33;;;;;;;15.95;12.77;;;12.90;57.60;;;;;;5066818;28;20044;-75
2022/03/10 11:46:21;;;;;;;19.30;13.27;;;13.10;58.90;;;;;;5065059;28;20651;-76
2022/03/10 11:49:09;;;;;;;16.30;13.48;;;13.30;59.50;;;;;;5063415;28;20086;-76
2022/03/10 11:51:56;;;;;;;17.98;13.07;;;13.50;59.80;;;;;;5063977;28;20498;-76
2022/03/10 11:54:32;;;;;;;15.40;12.93;;;13.80;57.70;;;;;;5066346;28;20422;-76
2022/03/10 11:57:05;;;;;;;15.65;12.45;;;13.80;57.30;;;;;;5063953;28;20087;-76
2022/03/10 11:59:39;;;;;;;18.60;13.50;;;13.90;57.70;;;;;;5060659;28;20041;-76
2022/03/10 12:02:05;;;;;;;22.67;14.35;;;13.80;55.30;;;;;;5064750;28;20128;-76
2022/03/10 12:04:59;;;;;;;18.67;13.05;;;13.80;54.90;;;;;;5060764;28;20109;-76
2022/03/10 12:07:30;;;;;;;16.75;13.68;;;13.60;55.60;;;;;;5065867;28;20128;-76
2022/03/10 12:10:10;;;;;;;14.57;12.77;;;13.70;57.20;;;;;;5062662;28;20940;-76
2022/03/10 12:12:41;;;;;;;24.98;14.52;;;13.80;56.40;;;;;;5062865;28;20041;-76
2022/03/10 12:15:29;;;;;;;18.40;13.70;;;14.00;54.80;;;;;;5065046;28;20046;-76
2022/03/10 12:17:55;;;;;;;19.48;14.52;;;14.30;54.40;;;;;;5066504;28;20122;-76
2022/03/10 12:20:23;;;;;;;21.35;14.35;;;14.10;54.50;;;;;;5064809;28;20044;-76
2022/03/10 12:23:12;;;;;;;17.13;14.38;;;14.10;52.50;;;;;;5096265;28;20105;-76
2022/03/10 12:25:43;;;;;;;23.38;14.57;;;14.10;54.00;;;;;;5062888;28;20415;-75
2022/03/10 12:28:11;;;;;;;18.90;14.40;;;14.10;52.70;;;;;;5064726;28;20028;-76
2022/03/10 12:30:44;;;;;;;18.33;14.55;;;14.30;53.30;;;;;;5063152;28;20498;-76
2022/03/10 12:33:10;;;;;;;19.10;14.68;;;14.30;52.50;;;;;;5061909;28;20056;-76
2022/03/10 12:35:38;;;;;;;20.90;14.30;;;14.40;52.10;;;;;;5065022;28;20048;-76
2022/03/10 12:38:05;;;;;;;17.98;14.27;;;14.50;52.50;;;;;;5063913;28;20048;-76
2022/03/10 12:40:34;;;;;;;22.15;14.93;;;14.50;51.20;;;;;;5097328;28;20126;-76
2022/03/10 12:43:05;;;;;;;17.48;13.63;;;14.70;53.10;;;;;;5078981;28;20040;-76
2022/03/10 12:45:31;;;;;;;21.42;14.27;;;14.70;52.10;;;;;;5064671;28;20036;-76